Time;durP1;ratioP1;P1;durP2;ratioP2;P2;SDS_P1;SDS_P2;PMS_P1;PMS_P2;Temp;Humidity;BMP_temperature;BMP_pressure;BME280_temperature;BME280_humidity;BME280_pressure;Samples;Min_cycle;Max_cycle;Signal;HPM_P1;HPM_P2
2022/02/02 00:00:28;;;;;;;16.92;7.80;;;;;21.80;100141.00;;;;2036240;28;20217;-46
2022/02/02 00:01:43;;;;;;;18.70;8.17;;;;;21.70;100203.00;;;;2037394;29;20613;-46
2022/02/02 00:03:51;;;;;;;18.95;7.55;;;;;21.70;100200.00;;;;2047223;28;20216;-45
2022/02/02 00:04:59;;;;;;;15.98;7.32;;;;;21.70;100202.00;;;;2061191;28;20624;-47
2022/02/02 00:07:14;;;;;;;16.55;7.28;;;;;21.70;100210.00;;;;2056196;28;20207;-46
2022/02/02 00:08:49;;;;;;;18.08;7.03;;;;;21.70;100210.00;;;;2054424;28;20274;-46
2022/02/02 00:09:37;;;;;;;16.88;7.70;;;;;21.70;100216.00;;;;2054012;28;20214;-46
2022/02/02 00:12:59;;;;;;;14.27;6.57;;;;;21.70;100235.00;;;;2054230;28;20265;-46
2022/02/02 00:14:14;;;;;;;17.02;6.80;;;;;21.70;100232.00;;;;2054495;28;20276;-46
2022/02/02 00:16:58;;;;;;;11.40;5.82;;;;;21.60;100218.00;;;;2062000;28;21186;-46
2022/02/02 00:18:14;;;;;;;16.88;6.85;;;;;21.60;100229.00;;;;2062157;28;20218;-46
2022/02/02 00:20:56;;;;;;;13.88;6.55;;;;;21.60;100227.00;;;;2061334;28;20214;-46
2022/02/02 00:22:05;;;;;;;14.55;6.30;;;;;21.60;100234.00;;;;2062088;28;20234;-46
2022/02/02 00:23:14;;;;;;;16.38;6.70;;;;;21.60;100230.00;;;;2062243;28;20294;-46
2022/02/02 00:24:51;;;;;;;13.25;6.13;;;;;21.60;100227.00;;;;2062064;28;20663;-45
2022/02/02 00:25:46;;;;;;;16.15;6.15;;;;;21.60;100228.00;;;;2061919;28;20874;-46
2022/02/02 00:26:48;;;;;;;15.98;7.07;;;;;21.60;100240.00;;;;2060715;28;20210;-45
2022/02/02 00:27:54;;;;;;;14.77;6.13;;;;;21.50;100234.00;;;;2054331;28;20274;-46
2022/02/02 00:29:00;;;;;;;16.15;7.00;;;;;21.50;100238.00;;;;2054481;28;21174;-46
2022/02/02 00:30:03;;;;;;;15.88;6.00;;;;;21.50;100230.00;;;;2059027;28;20222;-46
2022/02/02 00:31:08;;;;;;;12.77;6.05;;;;;21.50;100242.00;;;;2061270;28;20249;-46
2022/02/02 00:33:23;;;;;;;16.52;6.32;;;;;21.50;100233.00;;;;2053435;28;20224;-45
2022/02/02 00:34:26;;;;;;;13.48;6.03;;;;;21.50;100236.00;;;;2050765;28;20287;-46
2022/02/02 00:35:33;;;;;;;13.10;5.88;;;;;21.50;100243.00;;;;2052567;28;20732;-46
2022/02/02 00:36:56;;;;;;;15.35;6.43;;;;;21.50;100243.00;;;;2054367;28;20218;-46
2022/02/02 00:37:56;;;;;;;12.32;6.15;;;;;21.50;100247.00;;;;2057177;28;20218;-48
2022/02/02 00:38:56;;;;;;;15.13;6.10;;;;;21.50;100255.00;;;;2061645;28;20222;-47
2022/02/02 00:39:56;;;;;;;18.67;6.80;;;;;21.50;100244.00;;;;2061795;28;20233;-46
2022/02/02 00:40:57;;;;;;;19.10;6.60;;;;;21.50;100233.00;;;;2060616;28;20218;-46
2022/02/02 00:41:57;;;;;;;13.53;5.37;;;;;21.40;100246.00;;;;2061646;28;20276;-46
2022/02/02 00:42:58;;;;;;;14.40;6.33;;;;;21.40;100247.00;;;;2062026;28;20214;-47
2022/02/02 00:44:00;;;;;;;14.03;5.40;;;;;21.50;100253.00;;;;2061271;28;20273;-46
2022/02/02 00:45:00;;;;;;;15.82;6.40;;;;;21.40;100251.00;;;;2061683;28;20349;-46
2022/02/02 00:46:01;;;;;;;16.30;6.60;;;;;21.40;100246.00;;;;2061093;28;20342;-46
2022/02/02 00:47:01;;;;;;;18.90;6.60;;;;;21.40;100249.00;;;;2061752;28;20316;-46
2022/02/02 00:48:03;;;;;;;11.40;5.30;;;;;21.40;100247.00;;;;2061504;28;20223;-46
2022/02/02 00:49:05;;;;;;;18.88;6.95;;;;;21.40;100251.00;;;;2058518;28;21115;-46
2022/02/02 00:50:06;;;;;;;14.35;6.25;;;;;21.40;100252.00;;;;2053599;28;20219;-46
2022/02/02 00:51:07;;;;;;;12.93;5.47;;;;;21.40;100256.00;;;;2052913;28;20211;-46
2022/02/02 00:52:07;;;;;;;14.60;5.70;;;;;21.40;100268.00;;;;2053629;28;20460;-46
2022/02/02 00:53:10;;;;;;;11.80;5.60;;;;;21.40;100268.00;;;;2052913;28;20218;-46
2022/02/02 00:54:14;;;;;;;11.18;5.15;;;;;21.40;100264.00;;;;2052950;28;20244;-45
2022/02/02 00:55:15;;;;;;;18.08;5.68;;;;;21.40;100265.00;;;;2052826;28;20227;-46
2022/02/02 00:56:15;;;;;;;12.83;5.50;;;;;21.30;100265.00;;;;2053676;28;20644;-46
2022/02/02 00:57:15;;;;;;;13.50;5.67;;;;;21.40;100266.00;;;;2053484;28;20225;-46
2022/02/02 00:58:16;;;;;;;16.60;5.67;;;;;21.40;100264.00;;;;2053345;28;20227;-46
2022/02/02 00:59:16;;;;;;;11.40;5.40;;;;;21.40;100265.00;;;;2046971;28;20224;-46
2022/02/02 01:00:17;;;;;;;13.83;5.10;;;;;21.40;100266.00;;;;2061013;28;20211;-46
2022/02/02 01:01:17;;;;;;;10.23;4.87;;;;;21.30;100265.00;;;;2059125;28;20218;-46
2022/02/02 01:02:17;;;;;;;12.13;5.43;;;;;21.40;100263.00;;;;2054147;28;20306;-46
2022/02/02 01:03:18;;;;;;;12.80;5.07;;;;;21.40;100265.00;;;;2054281;28;21213;-46
2022/02/02 01:04:18;;;;;;;15.10;5.77;;;;;21.30;100266.00;;;;2054097;28;21056;-46
2022/02/02 01:05:18;;;;;;;13.27;5.60;;;;;21.30;100265.00;;;;2054101;28;20250;-46
2022/02/02 01:06:21;;;;;;;12.23;6.00;;;;;21.30;100259.00;;;;2054055;28;20228;-46
2022/02/02 01:07:35;;;;;;;10.38;4.82;;;;;21.30;100253.00;;;;2054021;28;20680;-46
2022/02/02 01:08:54;;;;;;;12.93;4.88;;;;;21.30;100271.00;;;;2049118;28;20302;-46
2022/02/02 01:11:18;;;;;;;11.18;4.47;;;;;21.30;100272.00;;;;2049145;28;20219;-48
2022/02/02 01:17:44;;;;;;;11.35;5.32;;;;;21.20;100258.00;;;;2053942;28;20692;-46
2022/02/02 01:20:16;;;;;;;11.95;4.95;;;;;21.20;100245.00;;;;2051544;28;20211;-46
2022/02/02 01:21:29;;;;;;;14.20;5.57;;;;;21.20;100260.00;;;;2053600;28;20208;-46
2022/02/02 01:27:49;;;;;;;14.07;5.15;;;;;21.20;100277.00;;;;2052844;28;20220;-46
2022/02/02 01:28:50;;;;;;;11.73;4.40;;;;;21.20;100270.00;;;;2062155;28;20207;-45
2022/02/02 01:29:50;;;;;;;9.97;4.67;;;;;21.20;100274.00;;;;2062000;28;20211;-46
2022/02/02 01:30:51;;;;;;;15.77;5.90;;;;;21.20;100273.00;;;;2054947;28;20206;-46
2022/02/02 01:31:53;;;;;;;15.52;5.65;;;;;21.20;100272.00;;;;2054238;28;20295;-46
2022/02/02 01:32:53;;;;;;;13.43;4.57;;;;;21.10;100273.00;;;;2053984;28;20223;-45
2022/02/02 01:33:54;;;;;;;14.67;6.00;;;;;21.10;100272.00;;;;2054074;28;20227;-46
2022/02/02 01:34:55;;;;;;;14.97;5.17;;;;;21.20;100273.00;;;;2054028;28;20223;-46
2022/02/02 01:35:55;;;;;;;15.43;5.70;;;;;21.20;100275.00;;;;2054242;28;20226;-46
2022/02/02 01:36:55;;;;;;;12.87;5.10;;;;;21.10;100272.00;;;;2053962;28;20514;-46
2022/02/02 01:37:56;;;;;;;13.60;5.63;;;;;21.10;100271.00;;;;2055728;28;20215;-45
2022/02/02 01:38:58;;;;;;;13.40;5.20;;;;;21.10;100270.00;;;;2061730;28;20222;-46
2022/02/02 01:40:04;;;;;;;14.32;5.50;;;;;21.10;100267.00;;;;2062046;28;20454;-45
2022/02/02 01:41:10;;;;;;;12.10;5.05;;;;;21.10;100269.00;;;;2060941;28;20241;-49
2022/02/02 01:42:14;;;;;;;12.07;5.28;;;;;21.10;100268.00;;;;2061841;28;20210;-45
2022/02/02 01:43:55;;;;;;;14.73;5.22;;;;;21.10;100270.00;;;;2062045;28;20231;-46
2022/02/02 01:44:50;;;;;;;14.73;5.30;;;;;21.10;100278.00;;;;2060841;28;20203;-46
2022/02/02 01:45:55;;;;;;;12.32;5.50;;;;;21.10;100271.00;;;;2063525;28;20215;-45
2022/02/02 01:46:56;;;;;;;12.85;5.20;;;;;21.10;100266.00;;;;2063371;28;20301;-45
2022/02/02 01:48:28;;;;;;;13.30;5.60;;;;;21.10;100271.00;;;;2063525;28;20242;-46
2022/02/02 01:52:13;;;;;;;15.35;5.75;;;;;21.10;100278.00;;;;2063277;28;20214;-46
2022/02/02 01:53:23;;;;;;;14.10;5.43;;;;;21.10;100293.00;;;;2049053;28;20304;-45
2022/02/02 01:54:48;;;;;;;15.43;5.68;;;;;21.10;100294.00;;;;2049847;28;20711;-45
2022/02/02 01:55:50;;;;;;;12.98;4.95;;;;;21.00;100295.00;;;;2054331;28;20223;-46
2022/02/02 01:56:50;;;;;;;13.10;5.22;;;;;21.10;100296.00;;;;2049879;28;20242;-46
2022/02/02 01:58:10;;;;;;;12.77;5.07;;;;;21.00;100295.00;;;;2054592;28;20227;-46
2022/02/02 01:59:37;;;;;;;15.00;6.13;;;;;21.00;100304.00;;;;2054844;28;20270;-46
2022/02/02 02:00:31;;;;;;;13.05;5.68;;;;;21.00;100304.00;;;;2052688;28;20254;-46
2022/02/02 02:01:32;;;;;;;18.27;5.87;;;;;21.00;100310.00;;;;2054964;28;20680;-46
2022/02/02 02:02:32;;;;;;;15.17;5.90;;;;;21.00;100310.00;;;;2055070;28;20235;-45
2022/02/02 02:03:33;;;;;;;12.30;5.17;;;;;21.00;100306.00;;;;2047437;28;20693;-46
2022/02/02 02:04:34;;;;;;;15.50;5.90;;;;;21.00;100309.00;;;;2047163;28;20299;-45
2022/02/02 02:05:34;;;;;;;15.40;5.60;;;;;21.00;100319.00;;;;2053484;28;20463;-46
2022/02/02 02:06:34;;;;;;;16.00;6.37;;;;;21.00;100304.00;;;;2055030;28;20247;-45
2022/02/02 02:07:35;;;;;;;11.83;5.40;;;;;21.00;100298.00;;;;2055059;28;20247;-46
2022/02/02 02:08:36;;;;;;;11.90;4.83;;;;;21.00;100300.00;;;;2054497;28;20299;-46
2022/02/02 02:09:37;;;;;;;13.43;5.38;;;;;21.00;100302.00;;;;2058603;28;20235;-46
2022/02/02 02:10:37;;;;;;;12.37;5.73;;;;;21.00;100300.00;;;;2054329;28;20224;-46
2022/02/02 02:11:43;;;;;;;11.33;5.50;;;;;21.00;100314.00;;;;2054761;28;20208;-46
2022/02/02 02:15:29;;;;;;;17.95;5.85;;;;;21.00;100304.00;;;;2054848;28;20243;-45
2022/02/02 02:16:29;;;;;;;14.15;5.28;;;;;21.00;100322.00;;;;2055133;28;20226;-45
2022/02/02 02:17:30;;;;;;;13.90;4.60;;;;;21.00;100315.00;;;;2055250;28;20691;-46
2022/02/02 02:18:30;;;;;;;12.40;4.73;;;;;20.90;100325.00;;;;2055063;28;20219;-46
2022/02/02 02:19:31;;;;;;;10.27;4.30;;;;;20.90;100309.00;;;;2054911;28;20305;-46
2022/02/02 02:20:31;;;;;;;16.50;5.97;;;;;21.00;100309.00;;;;2053101;28;20215;-46
2022/02/02 02:21:31;;;;;;;11.27;4.87;;;;;21.00;100315.00;;;;2054001;28;20750;-45
2022/02/02 02:22:36;;;;;;;12.70;4.77;;;;;21.00;100315.00;;;;2054624;28;20265;-45
2022/02/02 02:23:36;;;;;;;15.40;5.47;;;;;21.00;100314.00;;;;2054625;28;20212;-46
2022/02/02 02:24:39;;;;;;;12.60;4.87;;;;;20.90;100313.00;;;;2054977;28;20215;-45
2022/02/02 02:25:41;;;;;;;14.20;6.05;;;;;20.90;100307.00;;;;2054765;28;20227;-46
2022/02/02 02:26:42;;;;;;;15.85;5.13;;;;;20.90;100315.00;;;;2054745;28;20219;-48
2022/02/02 02:27:43;;;;;;;15.90;5.10;;;;;20.90;100315.00;;;;2055045;28;20218;-46
2022/02/02 02:28:57;;;;;;;16.05;6.03;;;;;20.90;100316.00;;;;2043455;28;20208;-46
2022/02/02 02:30:04;;;;;;;14.07;5.82;;;;;20.90;100305.00;;;;2047058;28;20231;-46
2022/02/02 02:31:18;;;;;;;17.45;5.43;;;;;20.90;100306.00;;;;2046341;28;20224;-46
2022/02/02 02:34:17;;;;;;;13.40;5.72;;;;;20.90;100288.00;;;;2046110;28;20215;-48
2022/02/02 02:55:49;;;;;;;14.65;5.63;;;;;20.90;100324.00;;;;2047021;28;20231;-45
2022/02/02 02:55:50;;;;;;;16.15;5.60;;;;;20.80;100347.00;;;;2050704;28;20861;-46
2022/02/02 02:56:51;;;;;;;15.65;5.25;;;;;20.80;100352.00;;;;2054316;28;20216;-46
2022/02/02 02:58:03;;;;;;;21.57;6.60;;;;;20.80;100339.00;;;;2054372;28;20242;-46
2022/02/02 02:59:07;;;;;;;16.55;6.20;;;;;20.80;100338.00;;;;2054591;28;20220;-46
2022/02/02 03:13:48;;;;;;;15.95;5.65;;;;;20.80;100334.00;;;;2054515;28;20227;-46
2022/02/02 03:30:15;;;;;;;12.50;5.70;;;;;20.70;100341.00;;;;2045844;28;20208;-46
2022/02/02 03:55:19;;;;;;;14.10;5.60;;;;;20.60;100344.00;;;;2062035;28;20215;-46
2022/02/02 03:57:28;;;;;;;16.30;5.77;;;;;20.60;100356.00;;;;2054553;28;20219;-45
2022/02/02 03:58:35;;;;;;;16.02;5.70;;;;;20.60;100349.00;;;;2054411;28;20282;-46
2022/02/02 03:59:46;;;;;;;12.88;5.50;;;;;20.60;100355.00;;;;2054286;28;20207;-45
2022/02/02 04:02:18;;;;;;;16.45;5.28;;;;;20.60;100366.00;;;;2054225;28;20219;-46
2022/02/02 04:04:54;;;;;;;15.02;5.30;;;;;20.60;100357.00;;;;2053574;28;20215;-45
2022/02/02 04:06:03;;;;;;;13.18;5.53;;;;;20.60;100355.00;;;;2053576;28;20951;-45
2022/02/02 04:07:07;;;;;;;18.10;5.55;;;;;20.60;100350.00;;;;2053042;28;20306;-46
2022/02/02 04:09:08;;;;;;;12.90;5.73;;;;;20.60;100344.00;;;;2054016;28;20343;-46
2022/02/02 04:10:08;;;;;;;14.00;5.10;;;;;20.60;100344.00;;;;2053667;28;20223;-46
2022/02/02 04:11:37;;;;;;;15.57;6.17;;;;;20.60;100356.00;;;;2053023;28;20227;-46
2022/02/02 04:51:37;;;;;;;15.65;5.82;;;;;20.40;100361.00;;;;2044752;28;20318;-46
2022/02/02 04:53:18;;;;;;;14.73;5.60;;;;;20.40;100363.00;;;;2045488;28;20215;-46
2022/02/02 04:54:27;;;;;;;16.95;6.15;;;;;20.40;100355.00;;;;2045352;28;20219;-46
2022/02/02 04:55:42;;;;;;;15.85;6.18;;;;;20.40;100369.00;;;;2045393;28;20673;-46
2022/02/02 04:57:16;;;;;;;16.13;5.70;;;;;20.40;100356.00;;;;2045415;28;20223;-46
2022/02/02 05:06:08;;;;;;;14.52;5.20;;;;;20.40;100383.00;;;;2054122;28;20212;-46
2022/02/02 05:07:18;;;;;;;14.80;5.60;;;;;20.30;100375.00;;;;2053741;28;21113;-46
2022/02/02 05:16:50;;;;;;;15.05;5.47;;;;;20.40;100384.00;;;;2061410;28;20297;-46
2022/02/02 05:18:45;;;;;;;16.23;5.63;;;;;20.40;100401.00;;;;2063348;28;20210;-46
2022/02/02 05:21:27;;;;;;;13.80;5.33;;;;;20.40;100407.00;;;;2054267;28;20214;-46
2022/02/02 05:51:49;;;;;;;11.87;4.80;;;;;20.20;100450.00;;;;2059882;28;20215;-47
2022/02/02 05:52:49;;;;;;;11.90;5.15;;;;;20.30;100457.00;;;;2063443;28;20246;-45
2022/02/02 05:53:50;;;;;;;13.53;4.70;;;;;20.30;100462.00;;;;2063400;28;20285;-45
2022/02/02 05:54:50;;;;;;;12.07;4.57;;;;;20.30;100464.00;;;;2063205;28;20249;-46
2022/02/02 05:55:51;;;;;;;10.20;4.30;;;;;20.30;100476.00;;;;2063307;28;20215;-45
2022/02/02 05:56:54;;;;;;;13.43;4.40;;;;;20.30;100459.00;;;;2062747;28;20581;-46
2022/02/02 05:57:56;;;;;;;13.52;4.95;;;;;20.30;100459.00;;;;2061534;28;20345;-46
2022/02/02 05:58:57;;;;;;;14.43;5.55;;;;;20.30;100472.00;;;;2046576;28;20362;-46
2022/02/02 05:59:57;;;;;;;12.47;5.00;;;;;20.30;100472.00;;;;2054871;28;20216;-45
2022/02/02 06:00:58;;;;;;;9.47;4.20;;;;;20.30;100471.00;;;;2061365;28;20266;-46
2022/02/02 06:01:59;;;;;;;12.15;4.55;;;;;20.30;100474.00;;;;2063372;28;20273;-45
2022/02/02 06:03:00;;;;;;;11.03;4.40;;;;;20.30;100473.00;;;;2058804;28;20270;-45
2022/02/02 06:04:01;;;;;;;10.50;4.35;;;;;20.30;100480.00;;;;2055286;28;20302;-46
2022/02/02 06:05:04;;;;;;;11.20;4.07;;;;;20.30;100479.00;;;;2046603;28;20693;-45
2022/02/02 06:06:04;;;;;;;10.85;4.38;;;;;20.30;100483.00;;;;2046485;28;20220;-46
2022/02/02 06:07:05;;;;;;;10.47;4.20;;;;;20.30;100481.00;;;;2046819;28;20220;-45
2022/02/02 06:08:12;;;;;;;8.10;3.93;;;;;20.30;100480.00;;;;2045674;28;20216;-45
2022/02/02 06:09:12;;;;;;;12.10;3.70;;;;;20.40;100462.00;;;;2054581;28;20292;-45
2022/02/02 06:10:15;;;;;;;12.13;3.73;;;;;20.30;100469.00;;;;2050915;28;20616;-51
2022/02/02 06:11:20;;;;;;;10.18;4.13;;;;;20.40;100475.00;;;;2054565;28;21025;-46
2022/02/02 06:12:22;;;;;;;10.32;3.90;;;;;20.40;100467.00;;;;2054639;28;20608;-46
2022/02/02 06:13:23;;;;;;;10.07;3.67;;;;;20.40;100478.00;;;;2054601;28;20247;-46
2022/02/02 06:14:26;;;;;;;12.60;4.10;;;;;20.40;100485.00;;;;2053614;28;20215;-46
2022/02/02 06:15:26;;;;;;;8.45;3.40;;;;;20.40;100480.00;;;;2054475;28;20621;-45
2022/02/02 06:16:28;;;;;;;7.37;3.57;;;;;20.40;100478.00;;;;2054722;28;20290;-45
2022/02/02 06:17:29;;;;;;;9.15;3.72;;;;;20.40;100476.00;;;;2055233;28;20214;-45
2022/02/02 06:18:29;;;;;;;9.87;3.83;;;;;20.40;100476.00;;;;2055230;28;20270;-45
2022/02/02 06:19:29;;;;;;;10.73;3.83;;;;;20.40;100467.00;;;;2054393;28;20538;-46
2022/02/02 06:20:30;;;;;;;7.00;2.83;;;;;20.40;100478.00;;;;2053622;28;20216;-45
2022/02/02 06:21:32;;;;;;;8.67;3.00;;;;;20.40;100477.00;;;;2055285;28;20294;-46
2022/02/02 06:22:33;;;;;;;9.20;3.60;;;;;20.40;100474.00;;;;2055096;28;20724;-46
2022/02/02 06:24:06;;;;;;;6.33;3.07;;;;;20.40;100476.00;;;;2061845;28;20258;-46
2022/02/02 06:25:20;;;;;;;7.32;3.00;;;;;20.40;100481.00;;;;2051416;28;20378;-45
2022/02/02 06:26:20;;;;;;;9.40;3.25;;;;;20.40;100486.00;;;;2057444;28;20214;-47
2022/02/02 06:27:24;;;;;;;10.10;3.43;;;;;20.40;100489.00;;;;2052876;28;20595;-46
2022/02/02 06:28:25;;;;;;;6.15;2.65;;;;;20.40;100484.00;;;;2054708;28;20294;-45
2022/02/02 06:29:25;;;;;;;7.07;2.90;;;;;20.40;100487.00;;;;2062475;28;20219;-46
2022/02/02 06:30:27;;;;;;;7.97;3.30;;;;;20.40;100469.00;;;;2053383;28;20211;-45
2022/02/02 06:31:27;;;;;;;7.32;2.65;;;;;20.40;100483.00;;;;2054511;28;20282;-45
2022/02/02 06:32:28;;;;;;;6.13;2.40;;;;;20.40;100490.00;;;;2052236;28;20987;-45
2022/02/02 06:33:35;;;;;;;8.57;3.10;;;;;20.40;100492.00;;;;2046359;28;20383;-45
2022/02/02 06:34:36;;;;;;;9.30;3.05;;;;;20.40;100494.00;;;;2054463;28;20215;-46
2022/02/02 06:35:36;;;;;;;6.30;3.00;;;;;20.50;100498.00;;;;2046494;28;20220;-46
2022/02/02 06:36:38;;;;;;;6.10;2.27;;;;;20.40;100491.00;;;;2046344;28;20221;-46
2022/02/02 06:37:38;;;;;;;7.75;2.47;;;;;20.50;100489.00;;;;2062575;28;20219;-45
2022/02/02 06:38:38;;;;;;;8.50;2.70;;;;;20.50;100492.00;;;;2063014;28;20223;-46
2022/02/02 06:39:39;;;;;;;7.43;3.33;;;;;20.50;100495.00;;;;2063088;28;20219;-45
2022/02/02 06:40:40;;;;;;;6.70;2.80;;;;;20.50;100507.00;;;;2061801;28;20330;-45
2022/02/02 06:41:40;;;;;;;5.22;2.20;;;;;20.50;100503.00;;;;2062986;28;20211;-45
2022/02/02 06:42:41;;;;;;;6.30;2.27;;;;;20.50;100502.00;;;;2062793;28;20211;-45
2022/02/02 06:43:41;;;;;;;7.50;2.80;;;;;20.50;100508.00;;;;2060715;28;20290;-46
2022/02/02 06:44:42;;;;;;;6.57;2.40;;;;;20.50;100510.00;;;;2046155;28;20560;-46
2022/02/02 06:45:42;;;;;;;6.30;2.73;;;;;20.50;100508.00;;;;2038526;28;20212;-46
2022/02/02 06:46:43;;;;;;;7.03;2.50;;;;;20.50;100514.00;;;;2034501;28;20732;-46
2022/02/02 06:47:45;;;;;;;8.55;2.25;;;;;20.50;100517.00;;;;2046500;28;20243;-46
2022/02/02 06:48:45;;;;;;;7.05;2.50;;;;;20.50;100516.00;;;;2054328;28;20274;-46
2022/02/02 06:49:48;;;;;;;6.13;2.53;;;;;20.50;100516.00;;;;2054831;28;20270;-46
2022/02/02 06:50:59;;;;;;;4.60;2.38;;;;;20.50;100521.00;;;;2054088;28;20614;-50
2022/02/02 06:52:09;;;;;;;7.00;2.42;;;;;20.50;100521.00;;;;2055033;28;20715;-46
2022/02/02 06:53:37;;;;;;;7.50;2.80;;;;;20.50;100520.00;;;;2054429;28;20219;-46
2022/02/02 06:55:07;;;;;;;6.38;2.40;;;;;20.50;100511.00;;;;2054870;28;20295;-46
2022/02/02 06:56:26;;;;;;;6.45;2.50;;;;;20.50;100523.00;;;;2054006;28;20219;-46
2022/02/02 06:57:42;;;;;;;4.30;1.90;;;;;20.50;100527.00;;;;2054097;28;20334;-46
2022/02/02 07:01:38;;;;;;;5.63;2.20;;;;;20.50;100533.00;;;;2040086;28;20216;-47
2022/02/02 07:04:02;;;;;;;6.70;2.47;;;;;20.50;100531.00;;;;2054250;28;20204;-46
2022/02/02 07:06:59;;;;;;;4.80;2.00;;;;;20.50;100529.00;;;;2044838;29;20243;-45
2022/02/02 07:08:31;;;;;;;7.03;2.65;;;;;20.60;100536.00;;;;2069993;28;20597;-46
2022/02/02 07:12:12;;;;;;;3.88;1.90;;;;;20.40;100554.00;;;;2055339;28;20661;-46
2022/02/02 07:13:26;;;;;;;4.97;2.00;;;;;20.60;100557.00;;;;2061811;28;20214;-45
2022/02/02 07:15:43;;;;;;;5.47;2.43;;;;;20.60;100564.00;;;;2062837;28;20219;-46
2022/02/02 07:17:35;;;;;;;5.32;2.40;;;;;20.60;100553.00;;;;2053666;28;20282;-46
2022/02/02 07:19:23;;;;;;;5.38;2.53;;;;;20.60;100557.00;;;;2062969;28;20230;-46
2022/02/02 07:20:44;;;;;;;6.15;2.78;;;;;20.60;100576.00;;;;2061081;28;20300;-46
2022/02/02 07:23:12;;;;;;;6.37;2.77;;;;;20.60;100562.00;;;;2062418;28;20838;-46
2022/02/02 07:25:41;;;;;;;7.00;2.17;;;;;20.60;100576.00;;;;2057734;28;20207;-46
2022/02/02 07:27:52;;;;;;;4.80;2.25;;;;;20.60;100598.00;;;;2062701;28;20300;-46
2022/02/02 07:29:00;;;;;;;4.90;2.10;;;;;20.60;100592.00;;;;2059289;28;20270;-45
2022/02/02 07:32:25;;;;;;;4.13;2.10;;;;;20.60;100591.00;;;;2045851;28;20216;-45
2022/02/02 07:33:32;;;;;;;5.18;2.10;;;;;20.60;100588.00;;;;2046039;28;20216;-45
2022/02/02 07:34:57;;;;;;;6.05;2.70;;;;;20.60;100593.00;;;;2045673;28;20704;-45
2022/02/02 07:36:14;;;;;;;3.78;1.98;;;;;20.60;100594.00;;;;2049632;28;20696;-45
2022/02/02 07:37:22;;;;;;;8.63;2.58;;;;;20.60;100589.00;;;;2053539;28;20222;-45
2022/02/02 07:38:25;;;;;;;5.82;2.72;;;;;20.70;100592.00;;;;2048665;28;20207;-45
2022/02/02 07:39:26;;;;;;;5.25;2.53;;;;;20.70;100593.00;;;;2046457;28;20240;-45
2022/02/02 07:40:26;;;;;;;7.60;2.87;;;;;20.70;100589.00;;;;2058213;28;20222;-45
2022/02/02 07:41:32;;;;;;;6.13;2.90;;;;;20.70;100581.00;;;;2058326;28;20826;-45
2022/02/02 07:42:32;;;;;;;6.10;2.67;;;;;20.70;100595.00;;;;2050605;28;20215;-45
2022/02/02 07:43:37;;;;;;;6.63;2.87;;;;;20.70;100598.00;;;;2058013;28;20218;-46
2022/02/02 07:44:39;;;;;;;6.68;2.67;;;;;20.70;100602.00;;;;2061540;28;20211;-45
2022/02/02 07:45:39;;;;;;;8.52;3.35;;;;;20.70;100600.00;;;;2061574;28;20214;-46
2022/02/02 07:46:43;;;;;;;8.37;2.40;;;;;20.70;100610.00;;;;2055319;28;20278;-46
2022/02/02 07:47:46;;;;;;;7.30;2.80;;;;;20.70;100608.00;;;;2055279;28;20216;-46
2022/02/02 07:48:47;;;;;;;3.45;2.00;;;;;20.70;100606.00;;;;2054741;28;22192;-45
2022/02/02 07:49:49;;;;;;;6.22;2.70;;;;;20.60;100599.00;;;;2053708;28;20211;-46
2022/02/02 07:50:50;;;;;;;5.18;2.58;;;;;20.60;100605.00;;;;2045397;28;20711;-45
2022/02/02 07:51:52;;;;;;;4.43;2.20;;;;;20.70;100602.00;;;;2041783;28;20327;-45
2022/02/02 07:52:52;;;;;;;10.32;2.83;;;;;20.80;100601.00;;;;2038208;28;20251;-46
2022/02/02 07:53:53;;;;;;;6.97;2.50;;;;;20.80;100601.00;;;;2045805;28;20230;-45
2022/02/02 07:54:54;;;;;;;6.20;2.20;;;;;20.90;100601.00;;;;2056946;28;20229;-46
2022/02/02 07:55:55;;;;;;;8.53;2.93;;;;;20.90;100614.00;;;;2062348;28;20306;-47
2022/02/02 07:56:55;;;;;;;8.70;2.83;;;;;20.90;100603.00;;;;2062184;28;21066;-46
2022/02/02 07:57:58;;;;;;;8.43;2.80;;;;;20.90;100598.00;;;;2062264;28;20215;-47
2022/02/02 07:59:20;;;;;;;8.43;2.35;;;;;21.00;100609.00;;;;2053538;28;20594;-46
2022/02/02 08:00:22;;;;;;;7.28;2.97;;;;;21.00;100600.00;;;;2056671;28;20222;-46
2022/02/02 08:01:23;;;;;;;5.75;2.80;;;;;21.00;100601.00;;;;2062180;28;20215;-45
2022/02/02 08:03:37;;;;;;;6.03;2.65;;;;;21.00;100613.00;;;;2053348;28;20207;-45
2022/02/02 08:04:38;;;;;;;8.07;3.13;;;;;21.00;100618.00;;;;2058914;28;20298;-45
2022/02/02 08:05:47;;;;;;;7.00;2.70;;;;;20.90;100606.00;;;;2062250;28;20217;-46
2022/02/02 08:06:54;;;;;;;9.45;2.90;;;;;20.90;100607.00;;;;2062193;28;20575;-45
2022/02/02 08:09:15;;;;;;;7.80;3.25;;;;;20.90;100611.00;;;;2056364;28;20238;-45
2022/02/02 08:10:20;;;;;;;6.38;2.40;;;;;20.90;100612.00;;;;2054535;28;20246;-47
2022/02/02 08:11:30;;;;;;;9.10;3.15;;;;;20.90;100609.00;;;;2053895;28;20878;-45
2022/02/02 08:12:41;;;;;;;7.50;3.00;;;;;20.90;100612.00;;;;2053279;28;20270;-45
2022/02/02 08:13:45;;;;;;;6.75;3.25;;;;;20.90;100620.00;;;;2053888;28;20639;-45
2022/02/02 08:14:53;;;;;;;8.60;3.65;;;;;20.90;100616.00;;;;2052347;28;20220;-45
2022/02/02 08:16:00;;;;;;;7.63;3.22;;;;;20.90;100616.00;;;;2053967;28;20738;-45
2022/02/02 08:17:01;;;;;;;8.18;3.10;;;;;21.00;100606.00;;;;2056673;28;20257;-47
2022/02/02 08:18:01;;;;;;;8.40;3.20;;;;;21.00;100611.00;;;;2054917;28;20226;-45
2022/02/02 08:19:03;;;;;;;5.80;2.80;;;;;21.00;100614.00;;;;2061258;28;20306;-45
2022/02/02 08:20:04;;;;;;;8.18;3.55;;;;;21.00;100607.00;;;;2061054;28;20218;-46
2022/02/02 08:21:04;;;;;;;6.78;3.25;;;;;21.00;100616.00;;;;2057394;28;20221;-45
2022/02/02 08:22:05;;;;;;;8.13;3.37;;;;;21.00;100624.00;;;;2056938;28;20219;-45
2022/02/02 08:23:05;;;;;;;6.47;3.53;;;;;21.00;100633.00;;;;2058973;28;20223;-45
2022/02/02 08:24:08;;;;;;;7.40;2.90;;;;;21.00;100631.00;;;;2055077;28;20223;-46
2022/02/02 08:25:10;;;;;;;6.65;2.72;;;;;21.00;100627.00;;;;2058047;28;20643;-45
2022/02/02 08:26:13;;;;;;;7.60;3.13;;;;;21.00;100628.00;;;;2047022;28;20223;-46
2022/02/02 08:27:13;;;;;;;6.53;3.08;;;;;21.00;100635.00;;;;2036812;28;20217;-46
2022/02/02 08:28:16;;;;;;;7.60;3.20;;;;;21.00;100641.00;;;;2045468;28;20970;-46
2022/02/02 08:29:16;;;;;;;9.10;2.75;;;;;21.00;100628.00;;;;2057801;28;20242;-45
2022/02/02 08:30:18;;;;;;;7.40;2.93;;;;;21.00;100632.00;;;;2061135;28;20735;-45
2022/02/02 08:31:19;;;;;;;6.80;3.00;;;;;21.00;100638.00;;;;2061449;28;20707;-45
2022/02/02 08:32:19;;;;;;;9.77;3.33;;;;;21.00;100643.00;;;;2046577;28;20247;-45
2022/02/02 08:33:25;;;;;;;7.40;3.50;;;;;21.10;100637.00;;;;2045457;28;20216;-46
2022/02/02 08:34:26;;;;;;;8.15;3.05;;;;;21.10;100647.00;;;;2054098;28;20226;-46
2022/02/02 08:35:30;;;;;;;8.07;3.00;;;;;21.10;100636.00;;;;2054302;28;20261;-46
2022/02/02 08:36:32;;;;;;;6.25;3.50;;;;;21.10;100644.00;;;;2051162;28;20215;-45
2022/02/02 08:37:35;;;;;;;9.55;4.40;;;;;21.10;100653.00;;;;2053646;28;20238;-45
2022/02/02 08:40:00;;;;;;;11.02;4.97;;;;;21.10;100655.00;;;;2054297;28;20219;-46
2022/02/02 08:42:04;;;;;;;9.43;5.57;;;;;21.10;100651.00;;;;2050053;28;20298;-45
2022/02/02 08:43:13;;;;;;;12.05;7.60;;;;;21.10;100658.00;;;;2053531;28;20231;-47
2022/02/02 08:45:42;;;;;;;16.67;8.73;;;;;21.10;100660.00;;;;2042925;28;20216;-46
2022/02/02 08:46:52;;;;;;;15.75;10.88;;;;;21.10;100664.00;;;;2059108;28;20711;-46
2022/02/02 08:47:59;;;;;;;17.60;13.15;;;;;21.10;100663.00;;;;2060310;28;20871;-46
2022/02/02 08:49:00;;;;;;;23.05;14.57;;;;;21.10;100668.00;;;;2056748;28;20241;-46
2022/02/02 08:50:03;;;;;;;22.13;15.00;;;;;21.10;100667.00;;;;2061254;28;20217;-46
2022/02/02 08:51:07;;;;;;;24.45;15.75;;;;;21.10;100674.00;;;;2059864;28;20246;-45
2022/02/02 08:52:09;;;;;;;25.63;18.88;;;;;21.20;100678.00;;;;2052437;28;20217;-46
2022/02/02 08:54:32;;;;;;;21.20;16.58;;;;;21.20;100684.00;;;;2047654;28;20204;-46
2022/02/02 08:56:05;;;;;;;32.88;20.52;;;;;21.20;100681.00;;;;2046736;28;20216;-45
2022/02/02 08:58:19;;;;;;;36.45;26.98;;;;;21.20;100698.00;;;;2062499;28;20218;-46
2022/02/02 09:00:24;;;;;;;37.43;26.90;;;;;21.20;100704.00;;;;2063345;28;20219;-46